Terminal Aerodrome Forecast
Issued by NWS Binghamton, NY

Home | Current Version | Previous Version | Text Only | Print | Product List | Glossary On
Versions: 1 2 3 4 5 6 7 8 9 10 11 12 13 14 15 16 17 18 19
126
FTUS41 KBGM 082320
TAFAVP
TAF
KAVP 082320Z 0900/0924 13008KT P6SM OVC050
      TEMPO 0906/0910 5SM -SHSN OVC035
     FM091300 09004KT P6SM OVC060
     FM091900 00000KT P6SM -SN OVC035
      TEMPO 0922/0924 4SM -SN BKN025 OVC050=

USA.gov is the U.S. government's official web portal to all federal, state and local government web resources and services.